KPMV

Plattsmouth Municipal Airport

Plattsmouth, Nebraska, USA
METAR KPMV 200055Z AUTO 19006KT 10SM CLR 04/M01 A2973 RMK AO2 T00371010
Observed Flight Rules
Jan-20 @ 00:55 UTC (22 minutes ago) Visual Flight Rules
Wind Visibility Clouds
190° at 6 knots 10 miles
  • Clear skies
Temperatures Readings
Current 4°C / 39°F
Dewpoint -1°C / 30°F
Humidity 70%
Altimeter 29.73" Hg
Pressure 1007 hPa
Elevation 367
METAR KPMV 200055Z AUTO 19006KT 10SM CLR 04/M01 A2973 RMK AO2 T00371010
Observed Flight Rules
Jan-20 @ 00:55 UTC
(22 minutes ago)
VFR
Wind Visibility
190° at 6 knots 10 miles
Clouds
  • Clear skies
Temperature Dewpoint
4°C / 39°F -1°C / 30°F
Humidity Altimeter Pressure
70% 29.73" Hg 1007 hPa